createdAt,value
2022-11-22T00:07:34.716Z,-0.90
2022-11-22T00:20:03.307Z,-1.00
2022-11-22T00:32:15.007Z,-1.20
2022-11-22T00:38:08.617Z,-1.20
2022-11-22T00:43:31.057Z,-1.10
2022-11-22T00:49:06.168Z,-1.00
2022-11-22T00:54:24.041Z,-1.00
2022-11-22T01:00:24.129Z,-0.80
2022-11-22T01:06:31.072Z,-0.70
2022-11-22T01:12:53.181Z,-0.60
2022-11-22T01:25:08.224Z,-0.60
2022-11-22T01:43:15.811Z,-0.60
2022-11-22T01:49:21.256Z,-0.60
2022-11-22T01:55:04.883Z,-0.60
2022-11-22T02:01:05.777Z,-0.70
2022-11-22T02:06:44.858Z,-0.90
2022-11-22T02:12:08.486Z,-1.00
2022-11-22T02:17:20.778Z,-1.10
2022-11-22T02:22:43.062Z,-1.00
2022-11-22T02:33:44.896Z,-1.20
2022-11-22T02:39:17.690Z,-1.10
2022-11-22T02:44:08.569Z,-1.10
2022-11-22T02:49:59.544Z,-1.10
2022-11-22T02:55:16.659Z,-1.20
2022-11-22T03:00:55.953Z,-1.20
2022-11-22T03:06:15.453Z,-1.20
2022-11-22T03:11:49.008Z,-1.10
2022-11-22T03:28:07.843Z,-1.20
2022-11-22T03:38:48.150Z,-1.00
2022-11-22T03:49:17.687Z,-0.70
2022-11-22T03:54:44.723Z,-0.60
2022-11-22T03:59:59.707Z,-0.50
2022-11-22T04:05:39.491Z,-0.40
2022-11-22T04:11:19.242Z,-0.30
2022-11-22T04:17:06.727Z,-0.20
2022-11-22T04:23:11.980Z,-0.10
2022-11-22T04:29:09.219Z,-0.10
2022-11-22T04:34:43.311Z,-0.20
2022-11-22T04:46:24.528Z,-0.20
2022-11-22T04:52:00.656Z,-0.10
2022-11-22T04:57:26.866Z,-0.20
2022-11-22T05:08:41.027Z,-0.40
2022-11-22T05:14:27.729Z,-0.30
2022-11-22T05:20:01.017Z,-0.20
2022-11-22T05:31:51.348Z,0.10
2022-11-22T05:37:24.590Z,0.20
2022-11-22T05:42:42.451Z,0.30
2022-11-22T05:48:04.844Z,0.30
2022-11-22T05:53:19.334Z,0.40
2022-11-22T05:58:47.833Z,0.30
2022-11-22T06:03:48.779Z,0.30
2022-11-22T06:08:55.677Z,0.30
2022-11-22T06:14:46.185Z,0.30
2022-11-22T06:19:50.755Z,0.40
2022-11-22T06:25:43.308Z,0.40
2022-11-22T06:31:04.765Z,0.40
2022-11-22T06:36:52.587Z,0.50
2022-11-22T06:42:27.952Z,0.50
2022-11-22T06:47:43.313Z,0.40
2022-11-22T06:52:50.274Z,0.50
2022-11-22T06:58:08.883Z,0.50
2022-11-22T07:09:42.573Z,0.60
2022-11-22T07:39:16.226Z,0.80
2022-11-22T07:44:07.473Z,0.80
2022-11-22T07:49:10.055Z,1.00
2022-11-22T07:54:29.159Z,1.00
2022-11-22T07:59:17.494Z,1.20
2022-11-22T08:04:01.788Z,1.20
2022-11-22T08:08:49.841Z,1.20
2022-11-22T08:13:44.850Z,1.30
2022-11-22T08:18:46.847Z,1.40
2022-11-22T08:23:30.783Z,1.50
2022-11-22T08:28:18.090Z,1.70
2022-11-22T08:33:12.021Z,1.70
2022-11-22T08:38:13.133Z,1.90
2022-11-22T08:43:34.062Z,2.00
2022-11-22T09:27:00.721Z,3.00
2022-11-22T09:31:47.869Z,3.10
2022-11-22T09:36:34.345Z,3.50
2022-11-22T09:41:58.074Z,3.40
2022-11-22T09:52:16.958Z,3.50
2022-11-22T09:57:23.043Z,3.60
2022-11-22T10:02:19.366Z,3.50
2022-11-22T10:07:20.893Z,3.50
2022-11-22T10:18:41.324Z,3.70
2022-11-22T10:23:52.382Z,3.70
2022-11-22T11:11:31.538Z,4.80
2022-11-22T11:16:22.820Z,4.70
2022-11-22T11:21:07.975Z,4.60
2022-11-22T11:25:55.071Z,4.70
2022-11-22T11:30:46.205Z,4.90
2022-11-22T11:35:31.553Z,4.90
2022-11-22T11:40:35.418Z,4.90
2022-11-22T11:45:37.662Z,5.00
2022-11-22T11:50:31.375Z,4.90
2022-11-22T11:55:18.011Z,4.70
2022-11-22T12:00:05.075Z,4.80
2022-11-22T12:04:53.506Z,4.70
2022-11-22T12:09:52.987Z,4.80
2022-11-22T12:15:16.919Z,4.70
2022-11-22T12:20:06.845Z,4.90
2022-11-22T12:25:24.284Z,4.90
2022-11-22T12:30:12.705Z,4.80
2022-11-22T12:35:13.119Z,4.60
2022-11-22T12:45:41.763Z,4.50
2022-11-22T12:50:30.630Z,4.50
2022-11-22T12:55:29.004Z,4.40
2022-11-22T13:00:34.440Z,4.50
2022-11-22T13:05:25.775Z,4.30
2022-11-22T13:10:25.299Z,4.20
2022-11-22T13:15:30.436Z,4.20
2022-11-22T13:20:23.561Z,4.20
2022-11-22T13:25:37.212Z,4.20
2022-11-22T13:31:01.343Z,4.10
2022-11-22T13:35:47.690Z,4.10
2022-11-22T13:40:36.456Z,4.10
2022-11-22T13:45:23.299Z,4.00
2022-11-22T13:50:56.897Z,3.90
2022-11-22T13:56:32.253Z,3.90
2022-11-22T14:01:53.279Z,3.80
2022-11-22T14:06:57.007Z,3.90
2022-11-22T14:12:02.404Z,3.60
2022-11-22T14:17:12.377Z,3.60
2022-11-22T14:22:27.086Z,3.60
2022-11-22T14:27:30.167Z,3.50
2022-11-22T14:32:50.991Z,3.70
2022-11-22T14:38:07.203Z,3.50
2022-11-22T14:43:01.029Z,3.60
2022-11-22T14:48:01.265Z,3.50
2022-11-22T14:53:23.211Z,3.50
2022-11-22T14:58:15.294Z,3.50
2022-11-22T15:03:45.287Z,3.40
2022-11-22T15:09:10.582Z,3.40
2022-11-22T15:14:26.656Z,3.30
2022-11-22T16:01:54.878Z,3.10
2022-11-22T16:06:44.624Z,3.10
2022-11-22T16:11:35.061Z,3.20
2022-11-22T16:16:22.280Z,3.00
2022-11-22T16:21:07.514Z,2.90
2022-11-22T16:25:59.092Z,3.00
2022-11-22T16:30:46.648Z,2.80
2022-11-22T16:35:31.724Z,2.80
2022-11-22T16:40:19.669Z,2.70
2022-11-22T16:45:07.987Z,2.60
2022-11-22T16:56:38.363Z,2.40
2022-11-22T17:01:24.332Z,2.40
2022-11-22T17:11:32.464Z,2.20
2022-11-22T17:16:19.590Z,2.20
2022-11-22T17:21:07.412Z,2.30
2022-11-22T17:25:54.721Z,2.40
2022-11-22T17:31:16.584Z,2.50
2022-11-22T17:36:03.383Z,2.60
2022-11-22T17:40:51.253Z,2.70
2022-11-22T17:45:43.159Z,2.60
2022-11-22T17:50:28.308Z,2.60
2022-11-22T17:55:15.792Z,2.60
2022-11-22T18:00:02.692Z,2.70
2022-11-22T18:04:50.544Z,2.70
2022-11-22T18:09:38.959Z,2.60
2022-11-22T18:14:27.823Z,2.60
2022-11-22T18:19:17.069Z,2.50
2022-11-22T18:24:05.248Z,2.40
2022-11-22T18:29:16.183Z,2.50
2022-11-22T18:33:55.954Z,2.40
2022-11-22T18:38:43.991Z,2.40
2022-11-22T18:43:30.073Z,2.20
2022-11-22T18:48:20.393Z,2.00
2022-11-22T18:53:07.823Z,2.00
2022-11-22T18:57:57.244Z,2.00
2022-11-22T19:02:43.132Z,2.00
2022-11-22T19:07:32.530Z,2.00
2022-11-22T19:12:19.794Z,2.00
2022-11-22T19:17:07.881Z,2.00
2022-11-22T19:21:56.254Z,2.00
2022-11-22T19:26:44.585Z,2.00
2022-11-22T19:31:33.835Z,2.00
2022-11-22T19:36:26.385Z,1.90
2022-11-22T19:41:21.239Z,2.00
2022-11-22T19:46:44.086Z,2.00
2022-11-22T19:51:32.489Z,1.90
2022-11-22T19:56:21.539Z,1.90
2022-11-22T20:01:07.360Z,1.90
2022-11-22T20:06:08.866Z,2.00
2022-11-22T20:11:05.178Z,1.90
2022-11-22T20:16:48.811Z,1.90
